Time;durP1;ratioP1;P1;durP2;ratioP2;P2;SDS_P1;SDS_P2;PMS_P1;PMS_P2;Temp;Humidity;BMP_temperature;BMP_pressure;BME280_temperature;BME280_humidity;BME280_pressure;Samples;Min_cycle;Max_cycle;Signal;HPM_P1;HPM_P2
2023/03/25 00:02:28;;;;;;;10.53;6.80;;;11.40;99.90;;;;;;1887450;75;21103;-85
2023/03/25 00:05:21;;;;;;;6.80;5.35;;;11.40;99.90;;;;;;1889737;75;21141;-86
2023/03/25 00:08:13;;;;;;;6.33;5.05;;;11.30;99.90;;;;;;1898335;75;21072;-85
2023/03/25 00:13:47;;;;;;;8.00;5.25;;;11.10;99.90;;;;;;1945047;72;22198;-85
2023/03/25 00:16:38;;;;;;;13.30;8.05;;;11.10;99.90;;;;;;1916941;75;21113;-84
2023/03/25 00:19:30;;;;;;;8.28;7.37;;;11.20;99.90;;;;;;1917211;75;21563;-86
2023/03/25 00:22:22;;;;;;;11.35;8.65;;;11.30;99.90;;;;;;1918191;73;21175;-85
2023/03/25 00:25:17;;;;;;;8.78;7.70;;;11.30;99.90;;;;;;1932421;73;21175;-85
2023/03/25 00:28:09;;;;;;;16.62;8.13;;;11.30;99.90;;;;;;1931024;73;21145;-85
2023/03/25 00:31:04;;;;;;;8.98;7.45;;;11.40;99.90;;;;;;1928222;73;21094;-85
2023/03/25 00:33:56;;;;;;;10.32;8.08;;;11.30;99.90;;;;;;1924502;73;21101;-85
2023/03/25 00:36:48;;;;;;;8.35;6.83;;;11.20;99.90;;;;;;1916935;75;21139;-85
2023/03/25 00:39:39;;;;;;;10.00;6.80;;;11.20;99.90;;;;;;1916876;75;21060;-85
2023/03/25 00:42:30;;;;;;;8.33;6.83;;;11.20;99.90;;;;;;1939955;73;21042;-85
2023/03/25 00:45:22;;;;;;;6.97;5.85;;;11.20;99.90;;;;;;1917105;75;21082;-85
2023/03/25 00:48:13;;;;;;;9.63;5.80;;;11.20;99.90;;;;;;1916917;75;21056;-86
2023/03/25 00:51:08;;;;;;;8.55;5.22;;;11.30;99.90;;;;;;1916943;75;21058;-85
2023/03/25 00:54:01;;;;;;;7.62;6.10;;;11.30;99.90;;;;;;1916850;75;21590;-85
2023/03/25 00:56:54;;;;;;;7.40;5.90;;;11.20;99.90;;;;;;1917193;75;21130;-85
2023/03/25 00:59:46;;;;;;;8.18;6.25;;;11.20;99.90;;;;;;1940133;73;21098;-85
2023/03/25 01:05:22;;;;;;;7.95;5.70;;;11.20;99.90;;;;;;1936637;72;20199;-84
2023/03/25 01:08:14;;;;;;;6.72;4.92;;;11.20;99.90;;;;;;1878697;75;21175;-84
2023/03/25 01:11:05;;;;;;;7.25;4.62;;;11.30;99.90;;;;;;1882617;75;21088;-86
2023/03/25 01:13:58;;;;;;;8.88;5.15;;;11.40;99.90;;;;;;1904649;75;21088;-85
2023/03/25 01:16:50;;;;;;;9.80;5.50;;;11.40;99.90;;;;;;1885815;75;21107;-85
2023/03/25 01:19:41;;;;;;;8.35;5.42;;;11.40;99.90;;;;;;1875022;75;21179;-85
2023/03/25 01:22:32;;;;;;;7.62;5.37;;;11.30;99.90;;;;;;1872644;75;21111;-85
2023/03/25 01:25:24;;;;;;;9.83;7.67;;;11.20;99.90;;;;;;1872740;76;21099;-85
2023/03/25 01:28:15;;;;;;;9.95;6.40;;;11.10;99.90;;;;;;1885446;75;21180;-85
2023/03/25 01:31:08;;;;;;;9.73;6.75;;;11.10;99.90;;;;;;1867085;75;21351;-84
2023/03/25 01:34:00;;;;;;;8.35;7.50;;;11.10;99.90;;;;;;1897393;75;21079;-84
2023/03/25 01:36:54;;;;;;;8.90;8.00;;;11.10;99.90;;;;;;1885021;75;21107;-85
2023/03/25 01:39:45;;;;;;;11.83;8.68;;;11.10;99.90;;;;;;1887540;75;21055;-86
2023/03/25 01:42:37;;;;;;;9.35;6.50;;;11.00;99.90;;;;;;1894594;75;21114;-85
2023/03/25 01:45:31;;;;;;;9.08;6.58;;;10.90;99.90;;;;;;1893926;75;21159;-85
2023/03/25 01:48:25;;;;;;;9.18;6.12;;;10.80;99.90;;;;;;1872607;75;21107;-85
2023/03/25 01:51:20;;;;;;;7.62;6.25;;;10.70;99.90;;;;;;1888046;75;21205;-85
2023/03/25 01:54:16;;;;;;;8.68;5.15;;;10.70;99.90;;;;;;1872376;75;21150;-85
2023/03/25 01:57:08;;;;;;;7.28;4.92;;;10.80;99.90;;;;;;1880854;75;21099;-85
2023/03/25 02:00:01;;;;;;;5.30;3.50;;;10.80;99.90;;;;;;1883070;75;21634;-85
2023/03/25 02:02:58;;;;;;;7.55;3.65;;;10.80;99.90;;;;;;1883630;75;21108;-85
2023/03/25 02:05:53;;;;;;;4.95;3.72;;;10.80;99.90;;;;;;1888598;75;21193;-85
2023/03/25 02:08:45;;;;;;;7.65;3.42;;;10.70;99.90;;;;;;1887782;75;21071;-85
2023/03/25 02:11:37;;;;;;;6.92;3.92;;;10.80;99.90;;;;;;1879476;75;21178;-85
2023/03/25 02:17:11;;;;;;;5.28;2.95;;;10.80;99.90;;;;;;1954295;72;22192;-86
2023/03/25 02:20:28;;;;;;;5.10;2.42;;;10.80;99.90;;;;;;1921026;74;21051;-86
2023/03/25 02:29:37;;;;;;;5.30;3.17;;;10.90;99.90;;;;;;1955721;72;22281;-86
2023/03/25 02:32:56;;;;;;;7.45;3.55;;;10.90;99.90;;;;;;1918050;74;21212;-86
2023/03/25 02:36:11;;;;;;;7.03;3.52;;;10.90;99.90;;;;;;1917062;75;21192;-85
2023/03/25 02:39:06;;;;;;;7.22;4.17;;;10.90;99.90;;;;;;1916618;75;21090;-85
2023/03/25 02:42:00;;;;;;;8.03;4.00;;;10.90;99.90;;;;;;1917135;75;21172;-85
2023/03/25 02:44:55;;;;;;;6.85;3.40;;;10.90;99.90;;;;;;1917126;75;21216;-85
2023/03/25 02:47:50;;;;;;;7.55;3.75;;;11.00;99.90;;;;;;1917249;75;21094;-84
2023/03/25 02:50:45;;;;;;;6.65;3.25;;;11.10;99.90;;;;;;1917014;75;21086;-85
2023/03/25 02:53:39;;;;;;;4.78;3.25;;;11.20;99.90;;;;;;1917134;75;21087;-85
2023/03/25 02:56:32;;;;;;;6.72;4.50;;;11.20;99.90;;;;;;1916946;75;21114;-85
2023/03/25 02:59:31;;;;;;;4.55;4.00;;;11.20;99.90;;;;;;1916727;75;21159;-85
2023/03/25 03:02:24;;;;;;;10.13;5.25;;;11.10;99.90;;;;;;1917008;75;21201;-84
2023/03/25 03:05:28;;;;;;;8.05;6.37;;;11.20;99.90;;;;;;1897631;75;21121;-85
2023/03/25 03:08:27;;;;;;;9.60;7.37;;;11.10;99.90;;;;;;1895612;75;21098;-84
2023/03/25 03:11:21;;;;;;;11.48;8.03;;;11.10;99.90;;;;;;1917116;75;21678;-85
2023/03/25 03:14:25;;;;;;;7.92;5.33;;;11.20;99.90;;;;;;1916937;75;21163;-85
2023/03/25 03:20:01;;;;;;;6.17;4.10;;;11.00;99.90;;;;;;1944739;72;22233;-84
2023/03/25 03:22:55;;;;;;;7.80;5.05;;;10.80;99.90;;;;;;1888380;75;21606;-86
2023/03/25 03:25:50;;;;;;;7.20;4.10;;;10.60;99.90;;;;;;1906247;75;21499;-85
2023/03/25 03:28:45;;;;;;;8.00;4.87;;;10.70;99.90;;;;;;1905007;75;21099;-85
2023/03/25 03:31:40;;;;;;;5.45;4.30;;;10.80;99.90;;;;;;1901178;75;21629;-86
2023/03/25 03:34:39;;;;;;;5.78;3.35;;;10.80;99.90;;;;;;1896046;75;21149;-86
2023/03/25 03:37:32;;;;;;;4.85;3.30;;;10.80;99.90;;;;;;1887903;75;21184;-85
2023/03/25 03:40:25;;;;;;;5.22;2.85;;;10.80;99.90;;;;;;1869924;76;21171;-86
2023/03/25 03:43:19;;;;;;;4.20;2.35;;;10.70;99.90;;;;;;1903590;75;21086;-86
2023/03/25 03:46:14;;;;;;;3.47;2.42;;;10.80;99.90;;;;;;1901839;75;21091;-85
2023/03/25 03:49:08;;;;;;;3.45;2.05;;;10.80;99.90;;;;;;1909233;75;21063;-85
2023/03/25 03:52:03;;;;;;;7.12;1.95;;;10.70;99.90;;;;;;1880854;75;21086;-85
2023/03/25 03:54:59;;;;;;;5.72;2.58;;;10.70;99.90;;;;;;1905566;75;21107;-85
2023/03/25 03:57:53;;;;;;;3.95;2.45;;;10.70;99.90;;;;;;1883655;76;21059;-85
2023/03/25 04:00:49;;;;;;;3.62;1.92;;;10.80;99.90;;;;;;1898369;75;21047;-85
2023/03/25 04:03:43;;;;;;;4.28;3.00;;;10.70;99.90;;;;;;1894779;75;21135;-85
2023/03/25 04:06:40;;;;;;;5.65;2.77;;;10.70;99.90;;;;;;1889653;75;21188;-85
2023/03/25 04:09:39;;;;;;;4.72;3.45;;;10.70;99.90;;;;;;1906490;75;21545;-85
2023/03/25 04:15:10;;;;;;;4.97;3.00;;;10.80;99.90;;;;;;1955223;72;22166;-84
2023/03/25 04:18:02;;;;;;;4.15;2.77;;;10.60;99.90;;;;;;1895415;74;21168;-85
2023/03/25 04:20:54;;;;;;;4.15;2.90;;;10.50;99.90;;;;;;1892008;75;21180;-84
2023/03/25 04:23:45;;;;;;;5.72;2.90;;;10.50;99.90;;;;;;1903561;75;21090;-85
2023/03/25 04:26:37;;;;;;;5.33;2.52;;;10.40;99.90;;;;;;1898560;75;21164;-86
2023/03/25 04:32:13;;;;;;;4.58;2.40;;;10.30;99.90;;;;;;1949530;72;22178;-84
2023/03/25 04:35:04;;;;;;;3.67;2.47;;;10.30;99.90;;;;;;1904918;75;21128;-84
2023/03/25 04:37:56;;;;;;;5.67;2.95;;;10.20;99.90;;;;;;1904909;75;21063;-85
2023/03/25 04:40:48;;;;;;;3.37;2.15;;;10.10;99.90;;;;;;1927288;74;21098;-85
2023/03/25 04:43:39;;;;;;;6.50;2.80;;;10.20;99.90;;;;;;1904496;75;21127;-84
2023/03/25 04:46:30;;;;;;;7.42;4.67;;;10.10;99.90;;;;;;1904210;74;21124;-84
2023/03/25 04:49:23;;;;;;;5.67;3.83;;;10.10;99.90;;;;;;1904552;75;21686;-85
2023/03/25 04:52:16;;;;;;;6.50;3.80;;;10.10;99.90;;;;;;1904549;75;21092;-84
2023/03/25 04:55:09;;;;;;;4.42;3.17;;;10.10;99.90;;;;;;1904223;75;21152;-84
2023/03/25 04:58:00;;;;;;;4.22;2.70;;;10.00;99.90;;;;;;1904328;75;21127;-83
2023/03/25 05:00:53;;;;;;;5.67;3.65;;;9.90;99.90;;;;;;1922622;74;21143;-84
2023/03/25 05:03:49;;;;;;;4.60;3.17;;;9.80;99.90;;;;;;1904934;75;21160;-84
2023/03/25 05:06:41;;;;;;;6.10;3.87;;;9.80;99.90;;;;;;1905032;75;21554;-84
2023/03/25 05:09:33;;;;;;;4.50;2.80;;;9.90;99.90;;;;;;1904492;75;21380;-84
2023/03/25 05:12:24;;;;;;;4.92;3.10;;;9.90;99.90;;;;;;1904848;75;21153;-84
2023/03/25 05:15:16;;;;;;;4.25;3.00;;;9.90;99.90;;;;;;1904969;75;21098;-84
2023/03/25 05:18:11;;;;;;;4.42;2.98;;;9.90;99.90;;;;;;1927631;74;21159;-84
2023/03/25 05:21:04;;;;;;;3.47;2.83;;;9.90;99.90;;;;;;1904685;75;21110;-84
2023/03/25 05:23:56;;;;;;;6.95;2.83;;;9.90;99.90;;;;;;1927093;74;21131;-84
2023/03/25 05:26:48;;;;;;;4.47;2.58;;;9.90;99.90;;;;;;1904653;75;21067;-84
2023/03/25 05:29:43;;;;;;;4.92;3.00;;;9.90;99.90;;;;;;1904729;75;21107;-84
2023/03/25 05:32:32;;;;;;;3.62;2.55;;;9.90;99.90;;;;;;1905804;74;21164;-84
2023/03/25 05:35:25;;;;;;;4.40;2.33;;;9.90;99.90;;;;;;1905421;74;21176;-84
2023/03/25 05:38:17;;;;;;;3.45;2.50;;;9.80;99.90;;;;;;1898264;75;21069;-84
2023/03/25 05:41:09;;;;;;;4.33;2.62;;;9.80;99.90;;;;;;1904589;74;21140;-84
2023/03/25 05:44:01;;;;;;;3.50;2.60;;;9.80;99.90;;;;;;1900464;74;21172;-84
2023/03/25 05:46:53;;;;;;;2.95;2.12;;;9.70;99.90;;;;;;1900524;74;21188;-84
2023/03/25 05:49:44;;;;;;;4.65;2.50;;;9.70;99.90;;;;;;1901182;74;21170;-84
2023/03/25 05:52:36;;;;;;;3.72;2.52;;;9.60;99.90;;;;;;1905547;74;21186;-84
2023/03/25 05:55:28;;;;;;;4.92;2.30;;;9.60;99.90;;;;;;1894691;75;21106;-84
2023/03/25 05:58:19;;;;;;;2.45;1.65;;;9.50;99.90;;;;;;1897239;74;21144;-84
2023/03/25 06:01:14;;;;;;;2.85;1.52;;;9.60;99.90;;;;;;1899323;74;21205;-84
2023/03/25 06:04:08;;;;;;;3.00;1.67;;;9.70;99.90;;;;;;1898244;75;21072;-85
2023/03/25 06:07:02;;;;;;;3.45;1.70;;;9.80;99.90;;;;;;1895863;75;21147;-84
2023/03/25 06:09:54;;;;;;;3.47;1.72;;;9.90;99.90;;;;;;1899248;74;21206;-84
2023/03/25 06:12:47;;;;;;;2.50;1.57;;;10.00;99.90;;;;;;1898124;74;21581;-84
2023/03/25 06:15:40;;;;;;;4.90;1.80;;;9.90;99.90;;;;;;1903701;75;21186;-84
2023/03/25 06:18:32;;;;;;;3.85;1.85;;;9.90;99.90;;;;;;1896087;75;21114;-84
2023/03/25 06:21:25;;;;;;;2.17;1.37;;;9.80;99.90;;;;;;1894377;75;21106;-86
2023/03/25 06:24:17;;;;;;;5.33;1.77;;;9.70;99.90;;;;;;1912218;74;21223;-84
2023/03/25 06:27:11;;;;;;;3.90;1.87;;;9.80;99.90;;;;;;1911092;74;21099;-84
2023/03/25 06:30:03;;;;;;;4.40;1.67;;;9.80;99.90;;;;;;1905372;74;21615;-84
2023/03/25 06:32:56;;;;;;;2.25;1.20;;;9.80;99.90;;;;;;1895028;75;21184;-84
2023/03/25 06:35:52;;;;;;;4.67;1.60;;;9.80;99.90;;;;;;1894229;75;21240;-84
2023/03/25 06:38:43;;;;;;;2.47;1.45;;;9.80;99.90;;;;;;1897402;74;21176;-84
2023/03/25 06:44:32;;;;;;;3.62;1.95;;;9.60;99.90;;;;;;1955723;72;22213;-84
2023/03/25 06:47:42;;;;;;;3.60;1.55;;;9.70;99.90;;;;;;1916938;75;21569;-85
2023/03/25 06:50:34;;;;;;;3.60;1.40;;;9.90;99.90;;;;;;1939223;73;21180;-85
2023/03/25 06:53:25;;;;;;;4.60;1.70;;;10.00;99.90;;;;;;1916772;74;21238;-85
2023/03/25 06:56:16;;;;;;;2.55;1.27;;;10.00;99.90;;;;;;1918784;73;21092;-85
2023/03/25 06:59:08;;;;;;;2.72;1.50;;;10.10;99.90;;;;;;1917046;75;21109;-75
2023/03/25 07:01:59;;;;;;;2.58;0.93;;;10.10;99.90;;;;;;1916901;75;21106;-76
2023/03/25 07:04:50;;;;;;;3.45;1.32;;;10.20;99.90;;;;;;1918401;73;21651;-76
2023/03/25 07:07:42;;;;;;;4.85;1.67;;;10.30;99.90;;;;;;1917067;75;21104;-74
2023/03/25 07:10:33;;;;;;;2.30;1.10;;;10.40;99.90;;;;;;1926913;74;21167;-74
2023/03/25 07:13:25;;;;;;;2.62;1.37;;;10.60;99.90;;;;;;1916955;75;21198;-74
2023/03/25 07:16:17;;;;;;;4.05;1.47;;;10.80;99.90;;;;;;1916893;75;21070;-74
2023/03/25 07:19:08;;;;;;;2.08;1.40;;;10.90;99.90;;;;;;1934252;73;22064;-74
2023/03/25 07:21:59;;;;;;;3.40;1.90;;;11.10;99.90;;;;;;1917102;75;21219;-77
2023/03/25 07:24:51;;;;;;;3.60;1.67;;;11.30;99.90;;;;;;1916717;75;21055;-75
2023/03/25 07:27:42;;;;;;;2.20;1.40;;;11.30;99.90;;;;;;1916893;75;21122;-75
2023/03/25 07:30:35;;;;;;;3.67;1.70;;;11.40;99.90;;;;;;1916810;75;21215;-75
2023/03/25 07:33:27;;;;;;;2.55;1.50;;;11.40;99.90;;;;;;1917157;75;21511;-75
2023/03/25 07:36:20;;;;;;;3.33;1.30;;;11.40;99.90;;;;;;1931661;73;21143;-75
2023/03/25 07:39:11;;;;;;;2.22;1.32;;;11.40;99.90;;;;;;1927831;73;21087;-77
2023/03/25 07:42:03;;;;;;;3.52;1.60;;;11.50;99.90;;;;;;1923631;73;21631;-75
2023/03/25 07:44:56;;;;;;;3.02;1.57;;;11.50;99.90;;;;;;1896653;73;21182;-75
2023/03/25 07:47:49;;;;;;;2.10;1.60;;;11.50;99.90;;;;;;1923092;73;21674;-75
2023/03/25 07:50:40;;;;;;;1.85;1.35;;;11.40;99.90;;;;;;1928461;71;21137;-77
2023/03/25 07:56:13;;;;;;;3.55;1.42;;;11.50;99.90;;;;;;1943104;72;22291;-74
2023/03/25 08:16:01;;;;;;;2.52;0.55;;;11.80;99.90;;;;;;1932910;72;23417;-76
2023/03/25 08:24:23;;;;;;;2.60;0.70;;;12.40;99.90;;;;;;1944275;72;22188;-78
2023/03/25 08:27:14;;;;;;;2.67;0.70;;;12.50;99.90;;;;;;1917638;73;21169;-76
2023/03/25 08:30:09;;;;;;;3.85;0.78;;;12.60;99.90;;;;;;1915876;73;21092;-78
2023/03/25 08:33:00;;;;;;;1.80;0.90;;;12.70;99.90;;;;;;1922953;73;21039;-78
2023/03/25 08:35:51;;;;;;;3.50;1.05;;;12.70;99.90;;;;;;1937150;73;21094;-77
2023/03/25 08:41:23;;;;;;;2.67;0.90;;;12.90;99.90;;;;;;1946543;72;22249;-79
2023/03/25 08:44:14;;;;;;;3.37;1.20;;;12.80;99.90;;;;;;1922535;73;21215;-77
2023/03/25 08:49:48;;;;;;;1.92;0.95;;;12.80;99.90;;;;;;1949481;72;22203;-78
2023/03/25 08:55:17;;;;;;;2.98;1.25;;;12.90;99.90;;;;;;1954640;72;22185;-78
2023/03/25 08:58:08;;;;;;;2.42;0.93;;;12.90;99.90;;;;;;1910373;75;21046;-79
2023/03/25 09:01:00;;;;;;;2.42;1.10;;;13.10;99.90;;;;;;1891738;73;21110;-78
2023/03/25 09:03:51;;;;;;;3.08;1.22;;;13.20;99.90;;;;;;1912135;75;21153;-78
2023/03/25 09:06:43;;;;;;;5.53;1.45;;;13.30;99.90;;;;;;1888093;75;21106;-78
2023/03/25 09:09:36;;;;;;;3.65;1.27;;;13.40;99.90;;;;;;1895175;75;21595;-77
2023/03/25 09:15:10;;;;;;;4.12;1.37;;;13.50;99.90;;;;;;1934626;72;23263;-78
2023/03/25 09:18:01;;;;;;;4.25;1.32;;;13.70;99.90;;;;;;1906160;74;21095;-78
2023/03/25 09:20:52;;;;;;;3.20;1.35;;;13.80;99.90;;;;;;1885902;75;21142;-79
2023/03/25 09:23:43;;;;;;;3.98;1.25;;;13.70;99.90;;;;;;1900904;75;21100;-78
2023/03/25 09:26:36;;;;;;;3.72;1.00;;;13.60;99.90;;;;;;1888979;75;21070;-79
2023/03/25 09:29:28;;;;;;;3.70;1.15;;;13.80;99.90;;;;;;1888275;75;21092;-78
2023/03/25 09:32:19;;;;;;;3.95;1.25;;;13.80;99.90;;;;;;1903438;75;21188;-78
2023/03/25 09:35:10;;;;;;;3.05;0.93;;;13.80;99.90;;;;;;1904698;75;21153;-78
2023/03/25 09:38:13;;;;;;;2.80;0.90;;;13.90;99.90;;;;;;1898862;75;21149;-78
2023/03/25 09:41:14;;;;;;;3.80;1.25;;;14.00;99.90;;;;;;1825422;78;21560;-78
2023/03/25 09:44:10;;;;;;;3.77;1.65;;;13.90;99.90;;;;;;1825296;77;21512;-78
2023/03/25 09:47:04;;;;;;;4.00;1.52;;;13.90;99.90;;;;;;1782683;80;21300;-78
2023/03/25 09:52:41;;;;;;;6.70;1.50;;;14.10;99.90;;;;;;1945656;72;22217;-80
2023/03/25 09:55:35;;;;;;;2.90;1.60;;;14.10;99.90;;;;;;1916994;75;21110;-78
2023/03/25 10:01:32;;;;;;;2.65;1.05;;;14.40;99.90;;;;;;1946052;72;22232;-78
2023/03/25 10:10:03;;;;;;;2.08;1.00;;;14.50;99.90;;;;;;1949758;72;22134;-80
2023/03/25 10:15:37;;;;;;;2.42;1.07;;;14.30;99.90;;;;;;1948720;72;22142;-79
2023/03/25 10:18:39;;;;;;;2.65;1.25;;;14.30;99.90;;;;;;1908482;74;21549;-79
2023/03/25 10:21:34;;;;;;;3.55;0.95;;;14.30;99.90;;;;;;1899073;75;21109;-78
2023/03/25 10:24:28;;;;;;;2.83;0.90;;;14.50;99.90;;;;;;1899291;75;21164;-77
2023/03/25 10:30:01;;;;;;;2.87;0.88;;;14.80;99.90;;;;;;1930332;72;22239;-78
2023/03/25 10:32:56;;;;;;;2.45;0.70;;;14.90;99.90;;;;;;1906763;75;21205;-78
2023/03/25 10:36:04;;;;;;;1.92;0.60;;;15.00;99.90;;;;;;1902844;75;21107;-78
2023/03/25 10:39:18;;;;;;;2.98;0.78;;;15.00;99.90;;;;;;1911847;75;21423;-77
2023/03/25 10:44:56;;;;;;;2.00;0.75;;;15.20;99.90;;;;;;1936229;72;22246;-79
2023/03/25 10:50:26;;;;;;;1.55;0.78;;;15.10;99.90;;;;;;1929153;72;22223;-79
2023/03/25 10:53:23;;;;;;;3.17;0.50;;;15.00;99.90;;;;;;1893543;75;21180;-78
2023/03/25 10:56:17;;;;;;;2.22;0.72;;;14.90;99.90;;;;;;1882231;75;21187;-78
2023/03/25 11:05:17;;;;;;;2.58;0.60;;;15.30;99.90;;;;;;1942878;72;22612;-77
2023/03/25 11:08:11;;;;;;;2.10;1.00;;;15.20;99.90;;;;;;1884675;75;21640;-80
2023/03/25 11:11:07;;;;;;;3.33;0.70;;;15.20;99.90;;;;;;1894225;75;21116;-78
2023/03/25 11:13:58;;;;;;;3.02;1.00;;;15.30;99.90;;;;;;1908631;75;21466;-77
2023/03/25 11:16:54;;;;;;;3.58;0.90;;;15.40;99.90;;;;;;1894594;75;21511;-77
2023/03/25 11:19:49;;;;;;;2.52;0.72;;;15.40;99.90;;;;;;1895347;75;21054;-77
2023/03/25 11:25:23;;;;;;;3.05;1.35;;;15.50;99.90;;;;;;1949510;72;22153;-77
2023/03/25 11:28:20;;;;;;;1.85;0.88;;;15.60;99.90;;;;;;1897666;75;21133;-77
2023/03/25 11:31:14;;;;;;;2.60;0.70;;;15.50;99.90;;;;;;1891396;75;21056;-77
2023/03/25 11:34:10;;;;;;;1.87;0.65;;;15.50;99.90;;;;;;1910065;75;21163;-77
2023/03/25 11:37:04;;;;;;;2.65;0.78;;;15.30;99.90;;;;;;1886352;75;21216;-77
2023/03/25 11:42:39;;;;;;;3.42;0.82;;;15.60;99.90;;;;;;1955786;72;22231;-78
2023/03/25 11:45:33;;;;;;;2.12;0.68;;;15.80;99.90;;;;;;1929064;73;21556;-78
2023/03/25 11:48:28;;;;;;;2.47;0.70;;;16.10;99.90;;;;;;1926714;73;21060;-78
2023/03/25 11:51:24;;;;;;;1.72;0.78;;;16.20;99.90;;;;;;1924352;73;21697;-78
2023/03/25 11:54:18;;;;;;;1.75;0.68;;;16.30;99.90;;;;;;1922136;73;21219;-77
2023/03/25 12:00:00;;;;;;;1.85;0.40;;;16.50;99.90;;;;;;1939036;72;22216;-79
2023/03/25 12:05:34;;;;;;;1.60;0.53;;;16.60;99.90;;;;;;1957467;72;22585;-80
2023/03/25 12:11:09;;;;;;;1.02;0.50;;;16.80;99.90;;;;;;1952098;72;22716;-76
2023/03/25 12:20:06;;;;;;;1.82;0.47;;;17.10;99.90;;;;;;1928940;72;22199;-79
2023/03/25 12:23:05;;;;;;;1.62;0.57;;;17.10;99.90;;;;;;1904036;75;21122;-79
2023/03/25 12:28:58;;;;;;;1.87;0.40;;;17.20;99.60;;;;;;1937146;72;22162;-76
2023/03/25 12:31:58;;;;;;;0.57;0.30;;;17.10;98.90;;;;;;1906627;73;21087;-78
2023/03/25 12:34:55;;;;;;;1.10;0.40;;;17.00;99.10;;;;;;1910105;75;21114;-78
2023/03/25 12:37:56;;;;;;;0.80;0.40;;;17.00;99.00;;;;;;1899418;75;21146;-77
2023/03/25 12:40:53;;;;;;;1.15;0.40;;;17.30;98.90;;;;;;1906571;75;21090;-77
2023/03/25 12:43:54;;;;;;;1.50;0.50;;;17.40;97.90;;;;;;1911863;75;21216;-77
2023/03/25 12:50:05;;;;;;;1.32;0.40;;;17.60;96.00;;;;;;1941416;72;22170;-79
2023/03/25 12:53:00;;;;;;;1.57;0.45;;;17.80;96.30;;;;;;1927475;73;21141;-79
2023/03/25 12:55:59;;;;;;;1.07;0.50;;;17.70;94.00;;;;;;1920689;73;21145;-77
2023/03/25 12:59:20;;;;;;;1.22;0.30;;;17.70;94.90;;;;;;1935429;73;21107;-77
2023/03/25 13:07:47;;;;;;;0.80;0.40;;;17.80;93.80;;;;;;1940301;72;22225;-78
2023/03/25 13:10:41;;;;;;;1.12;0.30;;;17.90;93.60;;;;;;1899235;75;21094;-78
2023/03/25 13:13:34;;;;;;;1.17;0.47;;;17.80;93.90;;;;;;1895736;75;21110;-77
2023/03/25 13:16:28;;;;;;;0.98;0.40;;;17.60;93.20;;;;;;1892718;75;21415;-77
2023/03/25 13:19:23;;;;;;;1.22;0.50;;;17.60;94.10;;;;;;1892149;75;21438;-78
2023/03/25 13:24:57;;;;;;;1.62;0.60;;;17.40;93.90;;;;;;1935341;72;22226;-78
2023/03/25 13:30:33;;;;;;;0.60;0.28;;;17.50;94.00;;;;;;1932732;72;22265;-79
2023/03/25 13:33:28;;;;;;;1.22;0.50;;;17.60;93.70;;;;;;1897603;75;21100;-77
2023/03/25 13:36:22;;;;;;;2.35;0.68;;;17.60;93.80;;;;;;1893816;75;21198;-78
2023/03/25 13:39:16;;;;;;;1.12;0.23;;;17.50;93.70;;;;;;1891082;75;21154;-79
2023/03/25 13:42:12;;;;;;;2.58;0.50;;;17.50;93.70;;;;;;1883437;75;21112;-78
2023/03/25 13:45:05;;;;;;;1.67;0.40;;;17.50;94.10;;;;;;1892844;75;21119;-78
2023/03/25 13:48:00;;;;;;;2.65;0.42;;;17.40;95.10;;;;;;1903230;75;21159;-77
2023/03/25 13:50:51;;;;;;;0.75;0.40;;;17.40;95.20;;;;;;1898222;75;21184;-77
2023/03/25 14:00:25;;;;;;;0.80;0.30;;;17.20;94.90;;;;;;1919197;72;22185;-78
2023/03/25 14:03:44;;;;;;;2.12;0.47;;;17.30;95.10;;;;;;1899105;73;21121;-78
2023/03/25 14:07:02;;;;;;;1.25;0.37;;;17.30;95.50;;;;;;1905354;75;21067;-77
2023/03/25 14:10:25;;;;;;;1.47;0.50;;;17.30;95.50;;;;;;1884199;76;21139;-77
2023/03/25 14:16:02;;;;;;;1.40;0.40;;;17.50;94.70;;;;;;1932557;72;22424;-77
2023/03/25 14:18:57;;;;;;;2.15;0.68;;;17.60;94.40;;;;;;1892676;75;21082;-77
2023/03/25 14:21:51;;;;;;;0.85;0.30;;;17.80;94.00;;;;;;1891568;75;21188;-78
2023/03/25 14:24:43;;;;;;;1.85;0.47;;;17.90;94.00;;;;;;1884149;76;21098;-78
2023/03/25 14:30:21;;;;;;;2.22;0.37;;;17.90;93.50;;;;;;1939834;72;22241;-77
2023/03/25 14:33:12;;;;;;;1.12;0.40;;;18.00;92.90;;;;;;1909115;74;21183;-78
2023/03/25 14:36:03;;;;;;;1.67;0.50;;;17.90;92.80;;;;;;1885398;75;21162;-78
2023/03/25 14:38:56;;;;;;;2.15;0.50;;;17.90;92.70;;;;;;1904795;75;21063;-78
2023/03/25 14:42:00;;;;;;;1.90;0.40;;;17.90;92.90;;;;;;1894128;75;21179;-78
2023/03/25 14:47:34;;;;;;;1.60;0.50;;;17.90;92.80;;;;;;1951507;72;22152;-77
2023/03/25 14:50:34;;;;;;;1.77;0.47;;;17.80;92.80;;;;;;1920662;73;21115;-79
2023/03/25 14:56:09;;;;;;;1.52;0.65;;;17.80;93.20;;;;;;1945561;72;22229;-79
2023/03/25 14:59:03;;;;;;;2.42;0.40;;;17.90;93.00;;;;;;1932101;73;21157;-78
2023/03/25 15:01:57;;;;;;;0.50;0.30;;;18.10;92.80;;;;;;1924821;73;21490;-77
2023/03/25 15:04:53;;;;;;;1.05;0.30;;;18.20;92.30;;;;;;1919963;73;21150;-78
2023/03/25 15:10:26;;;;;;;1.27;0.40;;;18.20;91.20;;;;;;1945499;72;22247;-79
2023/03/25 15:16:03;;;;;;;2.15;0.50;;;18.10;90.80;;;;;;1944322;72;22208;-79
2023/03/25 15:19:10;;;;;;;2.15;0.40;;;18.00;90.90;;;;;;1892486;75;21118;-77
2023/03/25 15:25:04;;;;;;;1.55;0.62;;;17.90;91.10;;;;;;1933164;72;22290;-79
2023/03/25 15:28:13;;;;;;;0.85;0.40;;;17.90;90.30;;;;;;1895600;74;21060;-79
2023/03/25 15:31:13;;;;;;;1.60;0.50;;;17.80;91.50;;;;;;1884083;75;21118;-78
2023/03/25 15:34:14;;;;;;;1.60;0.35;;;17.80;92.10;;;;;;1905467;75;21110;-78
2023/03/25 15:37:22;;;;;;;1.02;0.37;;;17.70;91.10;;;;;;1866683;76;21054;-78
2023/03/25 15:40:31;;;;;;;1.42;0.53;;;17.60;91.20;;;;;;1892134;75;21678;-78
2023/03/25 15:46:21;;;;;;;1.22;0.40;;;17.50;91.80;;;;;;1938869;72;22245;-80
2023/03/25 15:49:37;;;;;;;2.20;0.60;;;17.50;92.20;;;;;;1903028;74;21167;-79
2023/03/25 15:52:39;;;;;;;2.47;1.30;;;17.50;92.20;;;;;;1894603;75;21131;-78
2023/03/25 15:55:33;;;;;;;1.55;0.70;;;17.50;92.60;;;;;;1894634;75;21128;-78
2023/03/25 16:01:15;;;;;;;1.62;0.50;;;17.60;92.90;;;;;;1932937;72;22201;-79
2023/03/25 16:04:09;;;;;;;2.80;0.68;;;18.00;92.90;;;;;;1904365;75;21118;-78
2023/03/25 16:07:02;;;;;;;2.40;0.70;;;18.50;92.00;;;;;;1892775;75;21076;-78
2023/03/25 16:09:54;;;;;;;1.90;0.80;;;18.60;91.30;;;;;;1892861;75;21109;-78
2023/03/25 16:15:29;;;;;;;3.47;0.70;;;18.20;91.70;;;;;;1941874;72;22354;-78
2023/03/25 16:18:23;;;;;;;1.70;0.50;;;18.10;91.60;;;;;;1883957;75;21118;-78
2023/03/25 16:21:15;;;;;;;2.30;0.80;;;18.00;92.00;;;;;;1892704;75;21147;-78
2023/03/25 16:24:10;;;;;;;2.55;0.60;;;17.90;92.10;;;;;;1894696;75;21088;-78
2023/03/25 16:27:10;;;;;;;2.15;0.50;;;17.90;92.10;;;;;;1907022;75;21620;-79
2023/03/25 16:30:01;;;;;;;3.55;0.70;;;18.00;92.30;;;;;;1902786;75;21060;-78
2023/03/25 16:32:53;;;;;;;2.92;0.55;;;18.10;92.10;;;;;;1905032;75;21105;-79
2023/03/25 16:35:46;;;;;;;2.15;0.68;;;18.00;91.80;;;;;;1892350;75;21621;-78
2023/03/25 16:38:38;;;;;;;3.62;0.60;;;17.90;92.00;;;;;;1892426;75;21114;-79
2023/03/25 16:41:30;;;;;;;1.17;0.60;;;17.60;91.80;;;;;;1904754;75;21143;-78
2023/03/25 16:44:23;;;;;;;1.32;0.50;;;17.50;92.10;;;;;;1892781;75;21066;-78
2023/03/25 16:50:00;;;;;;;0.53;0.30;;;17.30;92.20;;;;;;1918275;72;22215;-77
2023/03/25 16:55:35;;;;;;;5.28;0.98;;;17.10;92.80;;;;;;1953225;72;22254;-77
2023/03/25 17:01:08;;;;;;;1.85;0.57;;;17.00;93.40;;;;;;1949812;72;22173;-80
2023/03/25 17:04:11;;;;;;;2.20;0.65;;;16.90;94.30;;;;;;1941657;73;21231;-80
2023/03/25 17:07:08;;;;;;;2.22;0.70;;;16.80;94.70;;;;;;1916805;74;21168;-80
2023/03/25 17:12:39;;;;;;;3.42;1.10;;;16.60;95.60;;;;;;1942063;72;22213;-79
2023/03/25 17:15:33;;;;;;;3.45;0.70;;;16.60;95.80;;;;;;1923228;73;21223;-79
2023/03/25 17:18:28;;;;;;;2.02;0.65;;;16.60;96.20;;;;;;1924920;73;21175;-80
2023/03/25 17:21:26;;;;;;;2.72;0.60;;;16.40;95.30;;;;;;1918503;73;21553;-80
2023/03/25 17:24:24;;;;;;;1.30;0.70;;;16.30;95.10;;;;;;1930133;73;21168;-79
2023/03/25 17:30:02;;;;;;;3.52;0.82;;;16.20;95.80;;;;;;1945125;72;22205;-79
2023/03/25 17:32:54;;;;;;;2.12;0.82;;;16.20;96.20;;;;;;1907556;74;21159;-79
2023/03/25 17:35:48;;;;;;;3.05;0.68;;;16.10;96.40;;;;;;1893699;75;21174;-80
2023/03/25 17:41:19;;;;;;;4.33;1.00;;;15.90;96.20;;;;;;1945569;72;22251;-80
2023/03/25 17:44:14;;;;;;;2.67;0.75;;;15.90;96.80;;;;;;1905813;75;21066;-79
2023/03/25 17:47:07;;;;;;;4.58;1.00;;;15.80;97.70;;;;;;1898374;75;21553;-78
2023/03/25 17:52:38;;;;;;;5.33;1.10;;;15.70;98.50;;;;;;1941940;72;22208;-80
2023/03/25 17:55:29;;;;;;;3.12;1.40;;;15.50;98.70;;;;;;1884269;75;21170;-79
2023/03/25 18:01:01;;;;;;;2.05;1.07;;;15.40;99.90;;;;;;1941543;72;22125;-80
2023/03/25 18:03:53;;;;;;;2.87;1.35;;;15.40;99.90;;;;;;1911444;74;21134;-79
2023/03/25 18:06:45;;;;;;;4.85;1.60;;;15.40;99.90;;;;;;1909380;74;21617;-79
2023/03/25 18:09:38;;;;;;;3.27;1.47;;;15.40;99.90;;;;;;1918985;74;21131;-79
2023/03/25 18:15:10;;;;;;;3.45;1.75;;;15.30;99.90;;;;;;1938807;72;22609;-79